createdAt,value
2022-08-03T00:02:15.899Z,99849.78
2022-08-03T00:04:43.512Z,99844.28
2022-08-03T00:07:10.751Z,99848.03
2022-08-03T00:09:37.837Z,99846.72
2022-08-03T00:12:05.385Z,99845.41
2022-08-03T00:14:32.623Z,99844.88
2022-08-03T00:16:59.751Z,99853.72
2022-08-03T00:19:27.942Z,99855.16
2022-08-03T00:21:55.093Z,99854.88
2022-08-03T00:24:22.216Z,99860.72
2022-08-03T00:26:49.614Z,99862.25
2022-08-03T00:29:16.734Z,99850.31
2022-08-03T00:31:52.669Z,99855.09
2022-08-03T00:34:36.566Z,99857.09
2022-08-03T00:37:13.770Z,99855.31
2022-08-03T00:39:43.452Z,99853.94
2022-08-03T00:42:10.593Z,99854.63
2022-08-03T00:44:41.212Z,99853.88
2022-08-03T00:47:10.327Z,99853.12
2022-08-03T00:49:38.190Z,99853.72
2022-08-03T00:52:07.840Z,99865.41
2022-08-03T00:54:40.279Z,99862.81
2022-08-03T00:57:07.537Z,99862.81
2022-08-03T00:59:34.786Z,99859.88
2022-08-03T01:02:02.363Z,99866.97
2022-08-03T01:04:29.482Z,99858.47
2022-08-03T01:07:00.422Z,99859.75
2022-08-03T01:09:31.763Z,99861.25
2022-08-03T01:12:08.886Z,99862.13
2022-08-03T01:14:38.640Z,99865.56
2022-08-03T01:17:12.357Z,99855.66
2022-08-03T01:19:39.919Z,99869.09
2022-08-03T01:22:27.873Z,99865.34
2022-08-03T01:25:14.273Z,99865.19
2022-08-03T01:27:57.969Z,99863.34
2022-08-03T01:30:27.837Z,99870.56
2022-08-03T01:33:01.174Z,99852.88
2022-08-03T01:35:35.526Z,99861.06
2022-08-03T01:38:15.611Z,99862.00
2022-08-03T01:40:43.039Z,99853.88
2022-08-03T01:43:11.457Z,99858.50
2022-08-03T01:45:38.585Z,99860.38
2022-08-03T01:48:06.185Z,99861.97
2022-08-03T01:50:34.329Z,99855.78
2022-08-03T01:53:01.526Z,99862.22
2022-08-03T01:55:28.918Z,99859.69
2022-08-03T01:58:06.177Z,99864.81
2022-08-03T02:00:35.330Z,99859.25
2022-08-03T02:03:02.735Z,99859.19
2022-08-03T02:05:29.838Z,99860.06
2022-08-03T02:07:57.089Z,99861.84
2022-08-03T02:10:34.667Z,99865.69
2022-08-03T02:13:03.291Z,99866.16
2022-08-03T02:15:30.673Z,99864.69
2022-08-03T02:17:57.801Z,99865.41
2022-08-03T02:20:24.962Z,99858.66
2022-08-03T02:22:52.393Z,99860.31
2022-08-03T02:25:19.511Z,99869.78
2022-08-03T02:27:49.086Z,99861.72
2022-08-03T02:30:16.504Z,99869.91
2022-08-03T02:32:44.217Z,99878.16
2022-08-03T02:35:11.793Z,99867.69
2022-08-03T02:37:42.988Z,99868.75
2022-08-03T02:40:16.826Z,99867.97
2022-08-03T02:42:44.321Z,99868.12
2022-08-03T02:45:13.943Z,99867.94
2022-08-03T02:47:54.241Z,99867.59
2022-08-03T02:50:22.926Z,99866.50
2022-08-03T02:52:50.437Z,99871.13
2022-08-03T02:55:17.545Z,99876.38
2022-08-03T02:57:44.935Z,99870.84
2022-08-03T03:00:12.353Z,99875.97
2022-08-03T03:02:40.188Z,99866.81
2022-08-03T03:05:55.894Z,99876.03
2022-08-03T03:07:59.056Z,99867.00
2022-08-03T03:10:26.536Z,99873.09
2022-08-03T03:12:55.369Z,99870.13
2022-08-03T03:15:22.631Z,99865.25
2022-08-03T03:17:50.165Z,99864.28
2022-08-03T03:20:29.690Z,99864.50
2022-08-03T03:23:01.383Z,99871.91
2022-08-03T03:25:32.103Z,99865.50
2022-08-03T03:27:59.944Z,99864.81
2022-08-03T03:30:27.057Z,99871.22
2022-08-03T03:32:54.189Z,99867.94
2022-08-03T03:35:21.592Z,99865.16
2022-08-03T03:37:48.723Z,99868.47
2022-08-03T03:40:15.838Z,99865.69
2022-08-03T03:42:43.233Z,99878.97
2022-08-03T03:45:10.592Z,99876.81
2022-08-03T03:47:37.688Z,99873.69
2022-08-03T03:50:05.577Z,99881.25
2022-08-03T03:52:33.027Z,99876.69
2022-08-03T03:55:01.250Z,99870.28
2022-08-03T03:57:29.435Z,99867.78
2022-08-03T03:59:56.646Z,99872.88
2022-08-03T04:02:23.808Z,99873.03
2022-08-03T04:05:09.722Z,99877.72
2022-08-03T04:07:59.246Z,99877.28
2022-08-03T04:10:45.318Z,99880.38
2022-08-03T04:13:12.483Z,99870.16
2022-08-03T04:15:40.039Z,99879.63
2022-08-03T04:18:07.360Z,99882.62
2022-08-03T04:20:34.848Z,99891.72
2022-08-03T04:23:02.232Z,99896.16
2022-08-03T04:25:30.423Z,99899.50
2022-08-03T04:28:21.035Z,99900.13
2022-08-03T04:30:48.230Z,99901.59
2022-08-03T04:33:15.432Z,99896.66
2022-08-03T04:35:59.699Z,99896.81
2022-08-03T04:38:30.535Z,99911.75
2022-08-03T04:40:57.647Z,99909.06
2022-08-03T04:43:24.729Z,99907.19
2022-08-03T04:45:52.176Z,99912.19
2022-08-03T04:48:20.039Z,99908.25
2022-08-03T04:50:47.312Z,99909.56
2022-08-03T04:53:14.901Z,99910.91
2022-08-03T04:55:42.096Z,99917.16
2022-08-03T04:58:09.239Z,99915.94
2022-08-03T05:00:36.688Z,99926.38
2022-08-03T05:03:03.830Z,99926.59
2022-08-03T05:05:49.761Z,99916.38
2022-08-03T05:08:20.279Z,99924.22
2022-08-03T05:10:55.429Z,99916.03
2022-08-03T05:13:26.452Z,99908.81
2022-08-03T05:15:53.639Z,99902.31
2022-08-03T05:18:21.269Z,99901.06
2022-08-03T05:20:48.452Z,99893.81
2022-08-03T05:23:15.565Z,99902.03
2022-08-03T05:25:49.728Z,99888.09
2022-08-03T05:28:17.301Z,99883.72
2022-08-03T05:30:44.802Z,99882.09
2022-08-03T05:33:11.910Z,99878.28
2022-08-03T05:36:01.346Z,99873.81
2022-08-03T05:38:28.736Z,99875.53
2022-08-03T05:41:21.784Z,99878.06
2022-08-03T05:43:47.614Z,99883.50
2022-08-03T05:46:14.837Z,99874.06
2022-08-03T05:48:42.312Z,99872.75
2022-08-03T05:51:11.440Z,99879.19
2022-08-03T05:53:39.917Z,99880.97
2022-08-03T05:56:14.507Z,99877.19
2022-08-03T05:58:46.642Z,99880.22
2022-08-03T06:01:14.336Z,99878.75
2022-08-03T06:03:41.877Z,99882.84
2022-08-03T06:06:09.038Z,99902.56
2022-08-03T06:08:36.158Z,99889.59
2022-08-03T06:11:03.798Z,99898.38
2022-08-03T06:13:30.932Z,99896.00
2022-08-03T06:15:58.047Z,99896.81
2022-08-03T06:18:25.454Z,99892.53
2022-08-03T06:20:52.980Z,99892.75
2022-08-03T06:23:20.236Z,99899.41
2022-08-03T06:25:47.638Z,99900.63
2022-08-03T06:31:02.300Z,99897.47
2022-08-03T06:34:30.933Z,99906.38
2022-08-03T06:36:17.003Z,99903.31
2022-08-03T06:38:44.159Z,99905.88
2022-08-03T06:41:11.260Z,99904.41
2022-08-03T06:44:02.640Z,99912.53
2022-08-03T06:46:25.982Z,99907.41
2022-08-03T06:48:53.523Z,99931.72
2022-08-03T06:51:20.660Z,99915.41
2022-08-03T06:54:08.230Z,99920.13
2022-08-03T06:56:35.345Z,99919.91
2022-08-03T06:59:02.464Z,99923.69
2022-08-03T07:01:29.988Z,99909.78
2022-08-03T07:03:57.218Z,99919.88
2022-08-03T07:06:24.750Z,99911.59
2022-08-03T07:08:55.446Z,99922.78
2022-08-03T07:11:24.891Z,99922.59
2022-08-03T07:13:52.313Z,99908.38
2022-08-03T07:16:19.438Z,99902.19
2022-08-03T07:18:46.555Z,99900.66
2022-08-03T07:21:13.938Z,99904.66
2022-08-03T07:23:41.038Z,99896.22
2022-08-03T07:26:08.164Z,99897.78
2022-08-03T07:28:35.573Z,99911.28
2022-08-03T07:31:02.699Z,99899.78
2022-08-03T07:33:29.858Z,99895.84
2022-08-03T07:35:57.253Z,99892.63
2022-08-03T07:38:24.362Z,99892.50
2022-08-03T07:40:51.500Z,99896.44
